Hanseatic Scout — V2BM2 — position and weather

sailwx.info

Track history (hours):
 
Tides and Currents Weather Stations Pressure Air Temp Water Temp Dewpoint Dewpoint Depression Visibility Wind Speed Wind Dir Waves Ship Positions

Hanseatic Scout

Last reported at 2016-Sep-18 19:33 UTC. Time now 2016-Sep-25 10:39 UTC.
Position N 55°38' E 015°27'.

Length 89 m; draft 6.3 m.

Type: Ship. MMSI: 304867000.

Date/timePositionNaut miles runAvg speedWind from/ knotsBaromVisibWave heightAir tempDewpointWater temp
2016-Sep-18 19:33N 55°38' E 015°27'38 9.6
2016-Sep-18 15:34N 55°17' E 014°30'1010.2
2016-Sep-18 14:34N 55°10' E 014°18'37 9.2
2016-Sep-18 10:33N 55°13' E 013°14'9 9.4
2016-Sep-18 09:33N 55°14' E 012°57'57 8.2
2016-Sep-18 02:33N 56°09' E 012°26'1010.1
2016-Sep-18 01:33N 56°14' E 012°10'11 9.6
2016-Sep-18 00:25N 56°23' E 011°60'1910.0
2016-Sep-17 22:34N 56°42' E 011°53'1010.0
2016-Sep-17 21:33N 56°51' E 011°47'1010.1
2016-Sep-17 20:33N 57°00' E 011°41'13 9.9
2016-Sep-17 19:16N 57°12' E 011°32'42 7.3
2016-Sep-17 13:29N 57°42' E 010°36'3 2.7
2016-Sep-17 12:20N 57°43' E 010°41'197 8.3
2016-Sep-16 12:29N 58°38' E 004°42'279 8.4
2016-Sep-15 03:14N 63°10' E 006°47'15 9.1
2016-Sep-15 01:33N 63°14' E 007°20'29 9.5
2016-Sep-14 22:33N 63°21' E 008°22'42 8.5
2016-Sep-14 17:33N 63°32' E 009°53'9 9.2
2016-Sep-14 16:33N 63°28' E 010°12'29 9.7
2016-Sep-14 13:33N 63°45' E 011°06'4 0.2
2016-Sep-13 16:32N 63°46' E 011°14'44 8.9
2016-Sep-13 11:34N 63°38' E 009°36'19 9.3
2016-Sep-13 09:30N 63°22' E 009°12'5 0.1
2016-Sep-11 18:14N 63°26' E 009°07'19 9.9
2016-Sep-11 16:22N 63°22' E 008°27'1011.8
2016-Sep-11 15:33N 63°16' E 008°10'1110.9
2016-Sep-11 14:34N 63°13' E 007°47'8 7.7
2016-Sep-11 13:33N 63°17' E 007°31'5 5.3
2016-Sep-11 12:34N 63°14' E 007°20'5 5.0
2016-Sep-11 11:32N 63°13' E 007°09'3 2.6
2016-Sep-11 10:32N 63°12' E 007°04'  
Track history (hours):
 
Tides and Currents Weather Stations Pressure Air Temp Water Temp Dewpoint Dewpoint Depression Visibility Wind Speed Wind Dir Waves Ship Positions

Hanseatic Scout

Last reported at 2016-Sep-18 19:33 UTC. Time now 2016-Sep-25 10:39 UTC.
Position N 55°38' E 015°27'.

Length 89 m; draft 6.3 m.

Type: Ship. MMSI: 304867000.

Date/timePositionNaut miles runAvg speedWind from/ knotsBaromVisibWave heightAir tempDewpointWater temp
2016-Sep-18 19:33N 55°38' E 015°27'38 9.6
2016-Sep-18 15:34N 55°17' E 014°30'1010.2
2016-Sep-18 14:34N 55°10' E 014°18'37 9.2
2016-Sep-18 10:33N 55°13' E 013°14'9 9.4
2016-Sep-18 09:33N 55°14' E 012°57'57 8.2
2016-Sep-18 02:33N 56°09' E 012°26'1010.1
2016-Sep-18 01:33N 56°14' E 012°10'11 9.6
2016-Sep-18 00:25N 56°23' E 011°60'1910.0
2016-Sep-17 22:34N 56°42' E 011°53'1010.0
2016-Sep-17 21:33N 56°51' E 011°47'1010.1
2016-Sep-17 20:33N 57°00' E 011°41'13 9.9
2016-Sep-17 19:16N 57°12' E 011°32'42 7.3
2016-Sep-17 13:29N 57°42' E 010°36'3 2.7
2016-Sep-17 12:20N 57°43' E 010°41'197 8.3
2016-Sep-16 12:29N 58°38' E 004°42'279 8.4
2016-Sep-15 03:14N 63°10' E 006°47'15 9.1
2016-Sep-15 01:33N 63°14' E 007°20'29 9.5
2016-Sep-14 22:33N 63°21' E 008°22'42 8.5
2016-Sep-14 17:33N 63°32' E 009°53'9 9.2
2016-Sep-14 16:33N 63°28' E 010°12'29 9.7
2016-Sep-14 13:33N 63°45' E 011°06'4 0.2
2016-Sep-13 16:32N 63°46' E 011°14'44 8.9
2016-Sep-13 11:34N 63°38' E 009°36'19 9.3
2016-Sep-13 09:30N 63°22' E 009°12'5 0.1
2016-Sep-11 18:14N 63°26' E 009°07'19 9.9
2016-Sep-11 16:22N 63°22' E 008°27'1011.8
2016-Sep-11 15:33N 63°16' E 008°10'1110.9
2016-Sep-11 14:34N 63°13' E 007°47'8 7.7
2016-Sep-11 13:33N 63°17' E 007°31'5 5.3
2016-Sep-11 12:34N 63°14' E 007°20'5 5.0
2016-Sep-11 11:32N 63°13' E 007°09'3 2.6
2016-Sep-11 10:32N 63°12' E 007°04'  

Dump ship's entire track history